createdAt,value
2023-02-02T00:04:46.860Z,329.809364548495
2023-02-02T00:11:09.127Z,328.41471571906357
2023-02-02T00:24:38.850Z,364.9966555183947
2023-02-02T00:30:59.964Z,288.0200668896321
2023-02-02T00:38:24.939Z,304.17391304347825
2023-02-02T00:44:46.371Z,319.7056856187291
2023-02-02T00:51:07.624Z,319.04347826086956
2023-02-02T00:57:29.465Z,320.438127090301
2023-02-02T01:05:37.625Z,301.2341137123746
2023-02-02T01:11:58.995Z,296.7190635451505
2023-02-02T01:18:20.597Z,296.27759197324417
2023-02-02T01:24:41.638Z,241.2541806020067
2023-02-02T01:31:02.917Z,262.88628762541805
2023-02-02T01:41:45.930Z,246.40133779264215
2023-02-02T01:48:06.870Z,252.4715719063545
2023-02-02T01:54:28.435Z,310.88628762541805
2023-02-02T02:00:49.196Z,275.9096989966555
2023-02-02T02:07:10.705Z,295.03344481605353
2023-02-02T02:13:33.487Z,417.81270903010034
2023-02-02T02:19:55.475Z,386.4882943143813
2023-02-02T02:26:17.472Z,328.17391304347825
2023-02-02T02:37:46.422Z,285.0903010033445
2023-02-02T02:44:08.428Z,307.75585284280936
2023-02-02T02:50:30.227Z,301.9264214046823
2023-02-02T02:56:52.798Z,277.02341137123744
2023-02-02T03:03:15.815Z,311.1371237458194
2023-02-02T03:13:33.917Z,281.5083612040134
2023-02-02T03:19:55.816Z,280.9264214046823
2023-02-02T03:34:36.126Z,306.8628762541806
2023-02-02T03:40:58.184Z,304.6254180602007
2023-02-02T03:47:20.521Z,307.7257525083612
2023-02-02T03:53:42.370Z,337.26421404682276
2023-02-02T04:00:03.937Z,324.32107023411373
2023-02-02T04:06:25.615Z,307.0635451505017
2023-02-02T04:14:49.117Z,309.5819397993311
2023-02-02T04:21:10.635Z,320.87959866220734
2023-02-02T04:27:32.444Z,354.561872909699
2023-02-02T04:33:54.343Z,334.4046822742475
2023-02-02T04:45:49.239Z,351.40133779264215
2023-02-02T04:54:12.094Z,309.8428093645485
2023-02-02T05:00:34.073Z,329.0267558528428
2023-02-02T05:06:55.738Z,307.25418060200667
2023-02-02T05:13:17.411Z,375.571906354515
2023-02-02T05:23:26.188Z,323.24749163879596
2023-02-02T05:29:48.048Z,338.24749163879596
2023-02-02T05:37:36.421Z,305.0066889632107
2023-02-02T05:46:17.586Z,342.2608695652174
2023-02-02T05:52:38.936Z,367.03344481605353
2023-02-02T05:59:00.320Z,373.52508361204013
2023-02-02T06:05:22.572Z,399.2207357859532
2023-02-02T06:11:44.306Z,398.4180602006689
2023-02-02T06:18:05.980Z,383.4983277591973
2023-02-02T06:24:38.878Z,386.55852842809367
2023-02-02T06:31:00.681Z,423.5016722408027
2023-02-02T06:37:22.579Z,397.53511705685617
2023-02-02T06:43:44.195Z,383.4581939799331
2023-02-02T06:50:06.136Z,425.2274247491639
2023-02-02T06:56:27.193Z,443.95986622073576
2023-02-02T07:02:48.128Z,452.056856187291
2023-02-02T07:11:13.236Z,704.438127090301
2023-02-02T07:17:37.024Z,601.1538461538462
2023-02-02T07:23:58.917Z,464.809364548495
2023-02-02T07:31:05.851Z,523.886287625418
2023-02-02T07:39:39.093Z,432.04013377926424
2023-02-02T07:48:00.754Z,426.46153846153845
2023-02-02T07:54:25.981Z,506.8695652173913
2023-02-02T08:00:50.836Z,690.8428093645485
2023-02-02T08:07:17.062Z,595.7357859531772
2023-02-02T08:19:31.596Z,708.6421404682275
2023-02-02T08:31:02.239Z,577.8060200668897
2023-02-02T08:43:24.088Z,588.9732441471572
2023-02-02T09:01:44.920Z,545.0066889632106
2023-02-02T09:08:47.643Z,499.2943143812709
2023-02-02T09:15:12.493Z,483.66220735785953
2023-02-02T09:24:26.357Z,460.0033444816053
2023-02-02T09:38:13.321Z,507.55183946488296
2023-02-02T09:44:37.986Z,473.2876254180602
2023-02-02T09:51:02.035Z,450.6321070234114
2023-02-02T09:57:26.878Z,469.25418060200667
2023-02-02T10:05:38.961Z,449.9397993311037
2023-02-02T10:12:03.799Z,557.7591973244147
2023-02-02T10:25:48.193Z,1092.71237458194
2023-02-02T10:32:12.884Z,758.2775919732442
2023-02-02T10:38:37.884Z,556.9163879598663
2023-02-02T10:57:17.505Z,488.3478260869565
2023-02-02T11:11:58.470Z,585.5919732441472
2023-02-02T11:18:23.995Z,479.1973244147157
2023-02-02T11:25:56.256Z,450.3010033444816
2023-02-02T11:33:19.612Z,405.4214046822743
2023-02-02T11:43:46.871Z,685.886287625418
2023-02-02T11:53:30.175Z,722.0769230769231
2023-02-02T11:59:55.576Z,737.2876254180602
2023-02-02T12:06:20.659Z,700.886287625418
2023-02-02T12:12:45.237Z,663.9130434782609
2023-02-02T12:19:10.681Z,589.1638795986622
2023-02-02T12:25:35.032Z,581.6086956521739
2023-02-02T12:31:59.744Z,850.4548494983278
2023-02-02T12:38:24.769Z,755.989966555184
2023-02-02T12:46:29.461Z,1086.2608695652175
2023-02-02T12:52:53.811Z,645.0401337792642
2023-02-02T12:59:19.284Z,575.6688963210702
2023-02-02T13:05:43.566Z,660.4816053511705
2023-02-02T13:12:08.224Z,767.247491638796
2023-02-02T13:18:33.390Z,588.5217391304348
2023-02-02T13:25:00.012Z,610.0133779264214
2023-02-02T13:31:25.253Z,564.1404682274248
2023-02-02T13:37:50.046Z,454.0836120401338
2023-02-02T13:44:16.040Z,419.9297658862876
2023-02-02T13:50:40.756Z,516.4013377926422
2023-02-02T13:57:05.381Z,486.0903010033445
2023-02-02T14:03:30.172Z,378.3411371237458
2023-02-02T14:09:55.059Z,506.1973244147157
2023-02-02T14:16:20.290Z,502.7959866220736
2023-02-02T14:25:53.728Z,410.17725752508363
2023-02-02T14:32:42.832Z,498.3612040133779
2023-02-02T14:39:07.892Z,580.5551839464883
2023-02-02T14:45:33.483Z,541.5953177257525
2023-02-02T14:54:06.554Z,401.55852842809367
2023-02-02T15:00:32.255Z,553.4046822742475
2023-02-02T15:37:14.879Z,532.8361204013378
2023-02-02T15:43:55.242Z,600.6321070234113
2023-02-02T15:50:20.576Z,825.4916387959867
2023-02-02T16:01:09.991Z,1071.2107023411372
2023-02-02T16:07:32.208Z,670.5150501672241
2023-02-02T16:13:53.669Z,688.886287625418
2023-02-02T16:21:54.466Z,798.6220735785953
2023-02-02T16:32:46.093Z,792.9130434782609
2023-02-02T16:39:09.066Z,779.2675585284281
2023-02-02T16:45:33.632Z,977.8394648829432
2023-02-02T16:51:56.231Z,929.4581939799331
2023-02-02T16:58:19.025Z,877.6454849498327
2023-02-02T17:04:40.953Z,744.9230769230769
2023-02-02T17:11:03.637Z,908.8996655518395
2023-02-02T17:23:08.611Z,931.4347826086956
2023-02-02T17:29:30.813Z,790.4648829431438
2023-02-02T17:35:55.262Z,807.9030100334448
2023-02-02T17:42:18.086Z,725.8294314381271
2023-02-02T17:48:39.650Z,726.9230769230769
2023-02-02T17:59:59.542Z,677.2675585284281
2023-02-02T18:14:24.170Z,613.1538461538462
2023-02-02T18:20:45.392Z,584.4882943143813
2023-02-02T18:27:06.481Z,580.1638795986622
2023-02-02T18:33:31.555Z,605.5986622073578
2023-02-02T18:39:54.099Z,609.3210702341137
2023-02-02T18:46:14.871Z,611.0668896321071
2023-02-02T18:52:35.476Z,650.7692307692307
2023-02-02T18:59:26.757Z,681.4214046822742
2023-02-02T19:15:43.023Z,1016.0367892976589
2023-02-02T19:22:07.873Z,1048.4147157190635
2023-02-02T19:30:29.039Z,1123.9163879598661
2023-02-02T19:42:13.672Z,1146.6020066889632
2023-02-02T19:54:22.128Z,1079.979933110368
2023-02-02T20:01:50.093Z,1149.2608695652175
2023-02-02T20:08:11.793Z,1266.8428093645484
2023-02-02T20:17:34.882Z,1351.8260869565217
2023-02-02T20:23:56.415Z,1329.391304347826
2023-02-02T20:30:17.844Z,1625.5384615384614
2023-02-02T20:36:39.019Z,1527.4314381270904
2023-02-02T20:42:59.979Z,1624.5551839464883
2023-02-02T20:49:21.307Z,1651.9665551839464
2023-02-02T20:55:42.651Z,1723.1839464882944
2023-02-02T21:02:04.403Z,1663.9163879598661
2023-02-02T21:08:26.932Z,1586.4581939799332
2023-02-02T21:14:54.107Z,1561.7859531772576
2023-02-02T21:21:16.020Z,1552.0434782608695
2023-02-02T21:27:37.146Z,1639.9063545150502
2023-02-02T21:33:58.443Z,1648.8461538461538
2023-02-02T21:42:16.963Z,1819.8461538461538
2023-02-02T21:48:37.923Z,1960.284280936455
2023-02-02T21:54:58.840Z,2026.4247491638796
2023-02-02T22:01:19.727Z,2096.28762541806
2023-02-02T22:14:29.020Z,1715.628762541806
2023-02-02T22:20:49.965Z,1548.8829431438128
2023-02-02T22:28:14.114Z,1453.8461538461538
2023-02-02T22:50:33.662Z,1435.2943143812709
2023-02-02T22:56:55.773Z,1438.6254180602007
2023-02-02T23:03:20.079Z,1456.8662207357859
2023-02-02T23:19:35.054Z,1368.8127090301002
2023-02-02T23:25:56.534Z,1415.7591973244148
2023-02-02T23:32:19.269Z,1357.9464882943143
2023-02-02T23:38:42.029Z,1478.61872909699
2023-02-02T23:49:02.677Z,1526.5886287625417
2023-02-02T23:55:25.187Z,1521.361204013378
